Time;durP1;ratioP1;P1;durP2;ratioP2;P2;SDS_P1;SDS_P2;PMS_P1;PMS_P2;Temp;Humidity;BMP_temperature;BMP_pressure;BME280_temperature;BME280_humidity;BME280_pressure;Samples;Min_cycle;Max_cycle;Signal;HPM_P1;HPM_P2
2022/05/18 00:02:24;;;;;;;8.27;3.60;;;20.30;97.70;;;;;;4999619;28;20120;-70
2022/05/18 00:04:49;;;;;;;7.80;3.67;;;20.30;97.70;;;;;;5002386;28;20041;-70
2022/05/18 00:07:15;;;;;;;8.27;3.42;;;20.40;97.70;;;;;;5000860;28;20048;-70
2022/05/18 00:09:42;;;;;;;10.45;4.47;;;20.40;97.80;;;;;;5006220;28;20174;-70
2022/05/18 00:12:08;;;;;;;9.55;4.03;;;20.50;97.70;;;;;;5007181;28;20789;-70
2022/05/18 00:14:34;;;;;;;5.43;3.03;;;20.50;97.30;;;;;;5010080;28;20515;-71
2022/05/18 00:17:03;;;;;;;7.35;2.85;;;20.50;97.20;;;;;;5015199;28;20387;-70
2022/05/18 00:19:30;;;;;;;13.50;3.58;;;20.60;97.20;;;;;;5002612;28;20029;-70
2022/05/18 00:21:56;;;;;;;6.25;3.85;;;20.50;97.80;;;;;;5003346;28;20031;-70
2022/05/18 00:24:22;;;;;;;6.88;3.83;;;20.30;98.00;;;;;;5013360;28;20089;-70
2022/05/18 00:26:47;;;;;;;6.57;3.33;;;20.30;98.20;;;;;;5006012;28;20030;-70
2022/05/18 00:29:13;;;;;;;13.93;4.13;;;20.30;98.30;;;;;;5014665;28;20036;-70
2022/05/18 00:31:41;;;;;;;7.40;4.10;;;20.30;98.40;;;;;;5007349;28;20033;-70
2022/05/18 00:34:07;;;;;;;8.00;3.35;;;20.30;98.50;;;;;;5006875;28;20053;-70
2022/05/18 00:36:33;;;;;;;6.40;3.95;;;20.30;98.40;;;;;;5004143;28;20037;-70
2022/05/18 00:38:59;;;;;;;6.55;3.92;;;20.40;98.30;;;;;;5002085;28;20034;-70
2022/05/18 00:41:27;;;;;;;6.68;3.13;;;20.40;98.30;;;;;;5011338;28;20088;-71
2022/05/18 00:43:54;;;;;;;6.78;3.50;;;20.40;98.20;;;;;;5006813;28;20030;-70
2022/05/18 00:46:21;;;;;;;7.40;3.88;;;20.30;98.10;;;;;;5012617;28;20034;-70
2022/05/18 00:48:48;;;;;;;6.55;4.20;;;20.20;98.20;;;;;;5007394;28;20566;-70
2022/05/18 00:51:26;;;;;;;12.00;4.07;;;20.20;97.90;;;;;;5002027;28;20523;-70
2022/05/18 00:54:00;;;;;;;10.57;3.67;;;20.10;97.90;;;;;;5004603;28;20040;-70
2022/05/18 00:56:27;;;;;;;;;;;20.00;97.90;;;;;;4994044;28;20038;-70
2022/05/18 00:58:58;;;;;;;10.30;4.22;;;20.00;98.50;;;;;;5005939;28;19909;-70
2022/05/18 01:01:24;;;;;;;8.93;3.70;;;19.80;98.70;;;;;;5009133;28;20041;-70
2022/05/18 01:03:52;;;;;;;8.65;3.90;;;19.60;98.70;;;;;;4998600;28;20046;-70
2022/05/18 01:06:20;;;;;;;7.43;3.67;;;19.60;98.50;;;;;;5009526;28;20037;-71
2022/05/18 01:08:50;;;;;;;6.57;3.50;;;19.90;98.20;;;;;;5000155;28;20038;-70
2022/05/18 01:11:17;;;;;;;7.05;3.00;;;19.90;98.00;;;;;;4999521;28;20029;-70
2022/05/18 01:13:43;;;;;;;8.75;3.55;;;19.70;98.30;;;;;;5000050;28;20042;-71
2022/05/18 01:16:09;;;;;;;9.90;4.47;;;19.60;98.50;;;;;;5002583;28;20037;-70
2022/05/18 01:18:35;;;;;;;6.47;3.47;;;19.70;98.60;;;;;;5003167;28;20038;-70
2022/05/18 01:21:01;;;;;;;10.68;3.55;;;19.60;98.80;;;;;;5008808;28;20484;-70
2022/05/18 01:23:39;;;;;;;8.77;3.50;;;19.60;99.00;;;;;;4999036;28;20088;-71
2022/05/18 01:26:36;;;;;;;6.32;3.88;;;19.50;99.30;;;;;;4999740;28;20026;-70
2022/05/18 01:29:05;;;;;;;7.82;3.33;;;19.60;99.10;;;;;;5004144;28;20037;-70
2022/05/18 01:31:54;;;;;;;6.28;4.05;;;19.60;99.10;;;;;;5010994;28;20030;-70
2022/05/18 01:34:23;;;;;;;6.95;3.58;;;19.80;98.70;;;;;;5001796;28;20081;-70
2022/05/18 01:36:50;;;;;;;8.57;3.60;;;19.90;98.60;;;;;;5022208;28;20037;-70
2022/05/18 01:39:28;;;;;;;9.88;4.32;;;19.90;98.90;;;;;;5008198;28;20033;-70
2022/05/18 01:42:06;;;;;;;7.50;3.45;;;19.60;99.40;;;;;;5014570;28;20069;-70
2022/05/18 01:44:33;;;;;;;8.48;3.47;;;19.20;99.90;;;;;;5008608;28;20030;-70
2022/05/18 01:46:59;;;;;;;7.85;4.05;;;19.40;99.90;;;;;;5020733;28;20040;-70
2022/05/18 01:49:25;;;;;;;9.10;4.15;;;19.60;99.70;;;;;;5007404;28;20108;-71
2022/05/18 01:51:53;;;;;;;6.68;3.60;;;19.50;99.90;;;;;;5003248;28;20084;-70
2022/05/18 01:54:19;;;;;;;8.38;3.97;;;19.50;99.90;;;;;;5012083;28;20037;-71
2022/05/18 01:56:45;;;;;;;5.68;3.45;;;19.50;99.80;;;;;;5008168;28;20388;-70
2022/05/18 01:59:12;;;;;;;7.60;3.92;;;19.60;99.50;;;;;;5004683;28;20041;-70
2022/05/18 02:01:38;;;;;;;9.93;3.72;;;19.40;99.90;;;;;;5006986;28;20037;-70
2022/05/18 02:04:04;;;;;;;9.45;3.58;;;19.30;99.80;;;;;;5005403;28;20072;-71
2022/05/18 02:06:32;;;;;;;8.80;3.50;;;19.00;99.90;;;;;;5002767;28;20072;-70
2022/05/18 02:08:58;;;;;;;7.57;4.10;;;18.90;99.90;;;;;;5000263;28;20038;-70
2022/05/18 02:11:24;;;;;;;6.40;3.38;;;18.70;99.90;;;;;;5008213;28;20159;-70
2022/05/18 02:13:51;;;;;;;10.95;4.25;;;18.40;99.90;;;;;;5005813;28;20027;-70
2022/05/18 02:16:18;;;;;;;7.97;4.00;;;18.60;99.90;;;;;;5006627;28;20108;-70
2022/05/18 02:18:43;;;;;;;5.78;3.40;;;18.60;99.90;;;;;;5010132;28;20041;-70
2022/05/18 02:21:11;;;;;;;5.85;3.38;;;18.70;99.90;;;;;;5011081;28;20421;-70
2022/05/18 02:23:38;;;;;;;6.93;3.80;;;18.70;99.90;;;;;;5002026;28;20049;-70
2022/05/18 02:26:09;;;;;;;10.23;3.90;;;18.70;99.90;;;;;;5006129;28;20033;-70
2022/05/18 02:28:35;;;;;;;8.43;4.68;;;18.70;99.90;;;;;;5003193;28;20122;-70
2022/05/18 02:31:01;;;;;;;6.43;3.80;;;18.70;99.90;;;;;;5002623;28;20104;-71
2022/05/18 02:33:26;;;;;;;6.72;3.75;;;18.70;99.90;;;;;;5004743;28;20045;-70
2022/05/18 02:35:52;;;;;;;10.55;4.28;;;18.80;99.90;;;;;;5002546;28;21648;-70
2022/05/18 02:38:18;;;;;;;8.65;3.65;;;18.70;99.90;;;;;;5022051;28;20370;-70
2022/05/18 02:40:43;;;;;;;10.07;4.45;;;18.70;99.90;;;;;;5006446;28;20117;-71
2022/05/18 02:43:10;;;;;;;7.15;4.07;;;18.70;99.90;;;;;;5010006;28;20061;-70
2022/05/18 02:45:36;;;;;;;6.85;4.18;;;18.60;99.90;;;;;;5000469;28;20037;-70
2022/05/18 02:48:01;;;;;;;12.13;4.78;;;18.60;99.90;;;;;;5011644;28;20097;-70
2022/05/18 02:50:28;;;;;;;7.90;3.80;;;18.60;99.90;;;;;;5007780;28;20496;-70
2022/05/18 02:52:53;;;;;;;10.38;5.68;;;18.60;99.90;;;;;;5012236;28;20033;-70
2022/05/18 02:58:03;;;;;;;11.35;4.60;;;18.70;99.90;;;;;;5004078;28;20661;-70
2022/05/18 03:00:29;;;;;;;8.18;4.50;;;18.80;99.90;;;;;;5009297;28;20038;-69
2022/05/18 03:02:55;;;;;;;7.60;4.22;;;18.60;99.90;;;;;;5001689;28;20116;-70
2022/05/18 03:05:21;;;;;;;7.47;4.35;;;18.60;99.90;;;;;;5004443;28;20473;-69
2022/05/18 03:07:47;;;;;;;10.48;4.50;;;18.50;99.90;;;;;;5002983;28;20097;-69
2022/05/18 03:10:18;;;;;;;8.82;4.28;;;18.30;99.90;;;;;;5006666;28;20477;-68
2022/05/18 03:12:44;;;;;;;9.35;4.38;;;18.20;99.90;;;;;;5002146;28;20798;-68
2022/05/18 03:15:13;;;;;;;12.23;4.72;;;18.20;99.90;;;;;;4996254;28;20038;-68
2022/05/18 03:17:39;;;;;;;6.47;4.20;;;18.20;99.90;;;;;;5000875;28;20052;-68
2022/05/18 03:20:07;;;;;;;10.48;4.47;;;18.00;99.90;;;;;;4999130;28;20129;-69
2022/05/18 03:25:18;;;;;;;7.65;4.50;;;18.20;99.90;;;;;;5007493;28;20048;-68
2022/05/18 03:27:44;;;;;;;8.00;3.92;;;18.10;99.90;;;;;;5003376;28;20029;-69
2022/05/18 03:30:12;;;;;;;4.95;3.25;;;18.00;99.90;;;;;;5007297;28;20125;-69
2022/05/18 03:32:39;;;;;;;6.82;3.60;;;18.00;99.90;;;;;;4997591;28;20034;-69
2022/05/18 03:35:06;;;;;;;8.32;3.95;;;17.90;99.90;;;;;;4999845;28;20034;-69
2022/05/18 03:37:32;;;;;;;6.95;3.65;;;17.90;99.90;;;;;;5004560;28;20069;-69
2022/05/18 03:39:57;;;;;;;7.18;4.22;;;17.90;99.90;;;;;;5005482;28;20434;-68
2022/05/18 03:42:23;;;;;;;7.55;4.78;;;18.00;99.90;;;;;;5006792;28;20131;-69
2022/05/18 03:44:49;;;;;;;6.22;4.32;;;17.90;99.90;;;;;;4998147;28;20053;-69
2022/05/18 03:47:14;;;;;;;10.20;4.25;;;17.90;99.90;;;;;;4997941;28;20057;-69
2022/05/18 03:49:40;;;;;;;8.15;4.10;;;18.00;99.90;;;;;;5004414;28;20026;-68
2022/05/18 03:52:06;;;;;;;12.07;3.42;;;17.90;99.90;;;;;;5007407;28;20052;-69
2022/05/18 03:54:32;;;;;;;7.88;3.65;;;17.70;99.90;;;;;;5000657;28;20034;-69
2022/05/18 03:56:58;;;;;;;8.02;4.40;;;17.90;99.90;;;;;;5000885;28;20030;-70
2022/05/18 03:59:24;;;;;;;10.48;3.75;;;18.10;99.90;;;;;;5004029;28;20045;-68
2022/05/18 04:01:50;;;;;;;5.88;4.03;;;18.20;99.90;;;;;;5004984;28;20050;-69
2022/05/18 04:04:15;;;;;;;8.05;4.22;;;18.00;99.90;;;;;;4999765;28;20519;-69
2022/05/18 04:06:41;;;;;;;7.85;4.03;;;18.20;99.90;;;;;;4993406;28;20396;-69
2022/05/18 04:09:06;;;;;;;8.57;4.05;;;18.30;99.90;;;;;;5004980;28;20510;-68
2022/05/18 04:11:32;;;;;;;8.50;4.45;;;18.30;99.90;;;;;;5006677;28;20029;-69
2022/05/18 04:13:58;;;;;;;7.25;3.75;;;18.30;99.90;;;;;;4997254;28;20022;-68
2022/05/18 04:16:23;;;;;;;11.98;4.22;;;18.30;99.90;;;;;;5014493;28;20030;-68
2022/05/18 04:18:49;;;;;;;11.13;4.30;;;18.40;99.90;;;;;;4999567;28;20041;-69
2022/05/18 04:21:14;;;;;;;11.68;3.97;;;18.60;99.90;;;;;;5002716;28;20073;-69
2022/05/18 04:23:41;;;;;;;16.25;4.57;;;18.60;99.90;;;;;;5000455;28;20066;-68
2022/05/18 04:26:08;;;;;;;12.10;4.93;;;18.50;99.90;;;;;;5013681;28;20108;-68
2022/05/18 04:28:35;;;;;;;27.85;6.38;;;18.60;99.90;;;;;;4998038;28;20041;-68
2022/05/18 04:31:01;;;;;;;8.32;4.68;;;18.30;99.90;;;;;;5008947;28;20034;-68
2022/05/18 04:33:27;;;;;;;11.45;4.13;;;18.00;99.90;;;;;;5000691;28;20497;-68
2022/05/18 04:35:53;;;;;;;6.90;4.30;;;18.10;99.90;;;;;;5008763;28;20041;-69
2022/05/18 04:38:21;;;;;;;12.63;3.83;;;17.90;99.90;;;;;;5004515;28;20173;-70
2022/05/18 04:40:47;;;;;;;7.97;4.00;;;17.90;99.90;;;;;;5002276;28;20135;-69
2022/05/18 04:43:16;;;;;;;5.88;3.55;;;18.00;99.90;;;;;;5009850;28;20033;-69
2022/05/18 04:45:45;;;;;;;9.77;4.30;;;18.00;99.90;;;;;;5008842;28;20033;-69
2022/05/18 04:48:17;;;;;;;8.45;4.30;;;18.10;99.90;;;;;;4996205;28;20042;-68
2022/05/18 04:50:44;;;;;;;9.43;3.97;;;17.90;99.90;;;;;;5000190;28;20034;-69
2022/05/18 04:53:10;;;;;;;6.82;3.90;;;17.70;99.90;;;;;;5008800;28;20032;-69
2022/05/18 04:55:36;;;;;;;5.88;4.25;;;17.60;99.90;;;;;;5024589;28;20038;-69
2022/05/18 04:58:03;;;;;;;7.00;3.70;;;17.60;99.90;;;;;;5004849;28;20079;-68
2022/05/18 05:00:29;;;;;;;9.00;4.32;;;17.80;99.90;;;;;;5010595;28;20212;-69
2022/05/18 05:02:57;;;;;;;6.47;3.40;;;17.90;99.90;;;;;;5001993;28;20029;-68
2022/05/18 05:05:25;;;;;;;6.03;3.85;;;17.90;99.90;;;;;;5002107;28;20050;-68
2022/05/18 05:07:52;;;;;;;9.52;4.20;;;17.90;99.90;;;;;;4997934;28;20087;-68
2022/05/18 05:10:18;;;;;;;6.63;3.88;;;18.00;99.90;;;;;;5003966;28;20453;-70
2022/05/18 05:12:45;;;;;;;11.40;3.78;;;18.00;99.90;;;;;;5001825;28;20057;-69
2022/05/18 05:15:12;;;;;;;6.72;4.40;;;18.00;99.90;;;;;;5003076;28;20049;-69
2022/05/18 05:17:38;;;;;;;8.30;3.58;;;17.90;99.90;;;;;;5008806;28;20073;-68
2022/05/18 05:20:04;;;;;;;6.97;3.63;;;17.70;99.90;;;;;;4999903;28;20029;-70
2022/05/18 05:22:30;;;;;;;5.40;4.03;;;17.70;99.90;;;;;;5004125;28;20038;-69
2022/05/18 05:24:56;;;;;;;6.38;3.70;;;17.90;99.90;;;;;;4995208;28;20036;-68
2022/05/18 05:27:22;;;;;;;9.02;4.22;;;17.90;99.90;;;;;;5006478;28;20034;-68
2022/05/18 05:29:48;;;;;;;5.03;3.35;;;18.00;99.90;;;;;;5004221;28;20475;-69
2022/05/18 05:32:13;;;;;;;6.47;4.32;;;18.00;99.90;;;;;;5002758;28;20034;-69
2022/05/18 05:34:39;;;;;;;8.48;4.22;;;18.20;99.90;;;;;;4994036;28;21064;-70
2022/05/18 05:37:05;;;;;;;8.38;4.07;;;18.10;99.90;;;;;;4985740;28;20783;-69
2022/05/18 05:39:31;;;;;;;8.82;4.13;;;18.10;99.90;;;;;;5004010;28;20026;-69
2022/05/18 05:41:56;;;;;;;9.32;4.40;;;18.20;99.90;;;;;;4986633;28;20044;-69
2022/05/18 05:44:22;;;;;;;8.73;4.22;;;18.00;99.90;;;;;;4979585;28;20037;-69
2022/05/18 05:46:47;;;;;;;9.55;4.47;;;18.00;99.90;;;;;;4977299;28;20038;-68
2022/05/18 05:49:13;;;;;;;8.75;4.00;;;18.10;99.90;;;;;;4994173;28;20459;-69
2022/05/18 05:51:39;;;;;;;7.57;4.22;;;18.10;99.90;;;;;;4998178;28;20041;-68
2022/05/18 05:54:05;;;;;;;8.20;4.28;;;17.90;99.90;;;;;;4997392;28;20026;-69
2022/05/18 05:56:31;;;;;;;9.05;3.97;;;17.90;99.90;;;;;;4994396;28;20046;-69
2022/05/18 05:58:58;;;;;;;5.97;4.10;;;18.10;99.90;;;;;;4998016;28;20046;-68
2022/05/18 06:01:24;;;;;;;10.23;4.40;;;18.20;99.90;;;;;;4998822;28;20053;-69
2022/05/18 06:03:49;;;;;;;9.70;4.63;;;18.30;99.90;;;;;;4989280;28;20408;-68
2022/05/18 06:06:15;;;;;;;8.40;4.30;;;18.40;99.90;;;;;;4984401;28;20488;-69
2022/05/18 06:08:41;;;;;;;6.63;4.00;;;18.50;99.90;;;;;;4994139;28;20030;-69
2022/05/18 06:11:09;;;;;;;9.13;4.65;;;18.60;99.90;;;;;;4999159;28;20034;-69
2022/05/18 06:13:35;;;;;;;7.63;4.28;;;18.70;99.90;;;;;;5004496;28;20030;-69
2022/05/18 06:16:02;;;;;;;9.95;4.25;;;18.90;99.90;;;;;;4995704;28;20044;-69
2022/05/18 06:18:29;;;;;;;8.85;4.15;;;18.90;99.90;;;;;;5005098;28;20124;-69
2022/05/18 06:20:56;;;;;;;7.90;3.75;;;18.90;99.90;;;;;;5000466;28;20041;-69
2022/05/18 06:23:22;;;;;;;7.35;4.63;;;19.00;99.90;;;;;;5002990;28;20030;-69
2022/05/18 06:25:48;;;;;;;8.40;4.20;;;19.10;99.90;;;;;;5006438;28;20034;-69
2022/05/18 06:28:14;;;;;;;7.20;4.07;;;19.20;99.90;;;;;;5005537;28;20044;-69
2022/05/18 06:30:41;;;;;;;5.45;3.95;;;19.20;99.90;;;;;;5002741;28;20044;-69
2022/05/18 06:33:07;;;;;;;5.70;3.75;;;19.30;99.90;;;;;;5002846;28;20379;-69
2022/05/18 06:35:33;;;;;;;7.63;3.75;;;19.40;99.90;;;;;;5005054;28;20042;-68
2022/05/18 06:37:59;;;;;;;8.48;3.72;;;19.50;99.90;;;;;;5010738;28;20036;-69
2022/05/18 06:41:21;;;;;;;7.00;4.05;;;19.60;99.90;;;;;;5005422;28;20441;-68
2022/05/18 06:43:11;;;;;;;12.60;4.15;;;19.70;99.90;;;;;;5002697;28;20040;-69
2022/05/18 06:45:37;;;;;;;8.85;4.20;;;19.80;99.90;;;;;;4998634;28;20046;-69
2022/05/18 06:48:03;;;;;;;5.95;3.50;;;20.00;99.90;;;;;;5009651;28;20030;-69
2022/05/18 06:50:29;;;;;;;8.00;3.40;;;20.20;99.90;;;;;;5008341;28;20057;-69
2022/05/18 06:52:55;;;;;;;6.05;3.53;;;20.20;99.70;;;;;;4991496;28;20507;-68
2022/05/18 06:55:20;;;;;;;10.43;4.10;;;20.50;99.50;;;;;;5010060;28;20417;-69
2022/05/18 06:57:47;;;;;;;9.55;4.05;;;20.60;99.00;;;;;;5008818;28;20423;-68
2022/05/18 07:00:13;;;;;;;7.05;4.13;;;20.90;99.00;;;;;;5018820;28;20125;-69
2022/05/18 07:02:38;;;;;;;5.85;3.63;;;21.20;98.40;;;;;;5004697;28;20484;-70
2022/05/18 07:05:04;;;;;;;5.03;3.47;;;21.40;98.10;;;;;;4999765;28;20044;-70
2022/05/18 07:07:30;;;;;;;6.65;3.42;;;21.50;97.80;;;;;;5009012;28;20038;-70
2022/05/18 07:09:56;;;;;;;7.40;3.13;;;21.70;97.10;;;;;;5008731;28;20435;-70
2022/05/18 07:12:21;;;;;;;5.88;3.30;;;21.80;97.00;;;;;;5007905;28;20030;-70
2022/05/18 07:14:47;;;;;;;6.82;2.70;;;22.00;97.20;;;;;;5003692;28;20037;-71
2022/05/18 07:17:13;;;;;;;8.15;3.03;;;22.10;97.00;;;;;;4994059;28;20044;-70
2022/05/18 07:19:38;;;;;;;7.78;3.30;;;22.60;96.10;;;;;;5004365;28;20038;-70
2022/05/18 07:22:05;;;;;;;7.10;3.17;;;23.80;95.50;;;;;;4996121;28;20065;-70
2022/05/18 07:24:31;;;;;;;6.95;2.50;;;25.00;93.70;;;;;;5011960;28;20116;-70
2022/05/18 07:26:56;;;;;;;4.93;2.85;;;25.20;92.50;;;;;;5016726;28;20120;-70
2022/05/18 07:29:22;;;;;;;9.60;3.45;;;26.20;91.70;;;;;;5009314;28;20033;-70
2022/05/18 07:34:32;;;;;;;8.80;3.50;;;27.10;90.50;;;;;;5003996;28;20101;-70
2022/05/18 07:36:58;;;;;;;8.63;3.03;;;27.50;90.70;;;;;;5005421;28;20063;-71
2022/05/18 07:39:24;;;;;;;10.45;3.63;;;28.30;89.70;;;;;;5016220;28;20503;-70
2022/05/18 07:41:51;;;;;;;5.72;3.85;;;28.40;88.10;;;;;;5009957;28;20038;-70
2022/05/18 07:44:17;;;;;;;9.07;3.38;;;28.20;89.10;;;;;;5008359;28;20028;-71
2022/05/18 07:46:42;;;;;;;10.27;4.00;;;27.80;89.40;;;;;;4988115;28;20041;-70
2022/05/18 07:49:08;;;;;;;6.82;3.33;;;27.50;88.80;;;;;;5004554;28;20029;-70
2022/05/18 07:51:35;;;;;;;6.90;3.92;;;27.60;90.30;;;;;;4998605;28;20115;-71
2022/05/18 07:54:01;;;;;;;7.50;3.80;;;27.10;90.00;;;;;;5002768;28;20044;-71
2022/05/18 07:56:27;;;;;;;8.25;4.82;;;27.50;90.50;;;;;;4991875;28;20022;-71
2022/05/18 07:58:54;;;;;;;9.25;3.70;;;26.10;91.20;;;;;;5006050;28;20480;-70
2022/05/18 08:01:20;;;;;;;8.80;3.60;;;26.20;91.40;;;;;;5006829;28;20192;-70
2022/05/18 08:03:47;;;;;;;6.72;3.85;;;27.30;91.60;;;;;;4990264;28;20503;-70
2022/05/18 08:06:13;;;;;;;9.68;3.75;;;26.70;90.80;;;;;;4996989;28;20128;-71
2022/05/18 08:08:39;;;;;;;9.52;4.55;;;27.00;91.00;;;;;;4994594;28;20157;-71
2022/05/18 08:16:34;;;;;;;13.20;4.00;;;25.60;91.90;;;;;;4992598;28;20384;-69
2022/05/18 08:19:00;;;;;;;6.65;3.78;;;25.40;92.30;;;;;;4991685;28;20042;-70
2022/05/18 08:21:27;;;;;;;9.05;3.72;;;25.00;93.00;;;;;;4989360;28;20046;-70
2022/05/18 08:23:53;;;;;;;10.15;4.20;;;24.90;93.00;;;;;;5003824;28;20441;-68
2022/05/18 08:26:19;;;;;;;6.78;3.95;;;25.20;92.80;;;;;;4997784;28;20033;-68
2022/05/18 08:28:44;;;;;;;9.75;3.92;;;25.10;92.90;;;;;;5004033;28;20029;-69
2022/05/18 08:31:12;;;;;;;7.15;3.78;;;24.90;93.50;;;;;;5017472;28;20132;-69
2022/05/18 08:33:38;;;;;;;5.97;4.20;;;25.00;93.20;;;;;;5005890;28;20097;-69
2022/05/18 08:36:06;;;;;;;8.52;4.10;;;24.80;93.30;;;;;;5002626;28;20050;-68
2022/05/18 08:38:33;;;;;;;8.10;3.83;;;24.60;93.20;;;;;;4992399;28;20144;-68
2022/05/18 08:41:18;;;;;;;8.35;4.03;;;24.40;93.20;;;;;;4994626;28;20069;-68
2022/05/18 08:43:50;;;;;;;10.82;4.20;;;24.60;93.30;;;;;;4996723;28;20071;-68
2022/05/18 08:46:37;;;;;;;8.13;3.58;;;24.70;93.50;;;;;;4994169;28;20038;-68
2022/05/18 08:49:13;;;;;;;10.65;4.28;;;25.20;93.30;;;;;;4983806;28;20045;-70
2022/05/18 08:52:05;;;;;;;11.77;5.07;;;25.10;93.10;;;;;;4984133;28;20061;-70
2022/05/18 08:55:07;;;;;;;6.93;3.72;;;25.00;93.30;;;;;;4983421;28;20037;-69
2022/05/18 08:57:40;;;;;;;8.40;4.28;;;25.20;92.90;;;;;;4995196;28;20465;-69
2022/05/18 09:00:17;;;;;;;6.47;3.85;;;25.10;93.50;;;;;;5006845;28;20121;-69
2022/05/18 09:02:44;;;;;;;9.27;4.13;;;25.30;94.10;;;;;;5001118;28;20533;-69
2022/05/18 09:05:43;;;;;;;10.07;4.07;;;25.00;93.00;;;;;;5002831;28;20731;-69
2022/05/18 09:08:13;;;;;;;8.38;4.53;;;25.20;93.20;;;;;;5002754;28;20033;-69
2022/05/18 09:10:55;;;;;;;8.25;4.43;;;25.40;93.60;;;;;;5007112;28;20526;-70
2022/05/18 09:13:23;;;;;;;7.68;4.43;;;25.80;92.90;;;;;;5003872;28;20057;-70
2022/05/18 09:16:40;;;;;;;7.45;3.80;;;25.90;92.10;;;;;;4991441;28;20030;-70
2022/05/18 09:19:15;;;;;;;11.95;4.45;;;25.90;92.50;;;;;;4966982;28;20689;-70
2022/05/18 09:21:48;;;;;;;8.73;4.32;;;26.20;92.30;;;;;;4955248;28;20046;-69
2022/05/18 09:24:22;;;;;;;6.95;3.85;;;26.10;92.10;;;;;;4977310;28;20041;-70
2022/05/18 09:27:20;;;;;;;6.93;3.58;;;26.40;92.00;;;;;;5010421;28;20036;-70
2022/05/18 09:30:03;;;;;;;9.18;3.85;;;26.60;91.90;;;;;;4994543;28;20034;-70
2022/05/18 09:32:51;;;;;;;6.38;3.67;;;27.00;91.50;;;;;;4986863;28;20496;-69
2022/05/18 09:35:56;;;;;;;7.57;4.15;;;27.10;91.60;;;;;;4997838;28;20376;-68
2022/05/18 09:39:10;;;;;;;8.45;3.90;;;27.10;91.20;;;;;;4992327;28;20678;-68
2022/05/18 09:41:43;;;;;;;9.45;4.13;;;27.40;91.40;;;;;;4975145;28;20093;-69
2022/05/18 09:44:18;;;;;;;7.97;3.47;;;27.50;90.70;;;;;;5003118;28;20034;-68
2022/05/18 09:46:44;;;;;;;6.43;3.85;;;27.30;90.40;;;;;;4997829;28;20144;-68
2022/05/18 09:49:27;;;;;;;7.18;3.85;;;27.30;90.50;;;;;;5020471;28;20566;-68
2022/05/18 09:51:56;;;;;;;10.95;3.97;;;27.50;90.20;;;;;;5012774;28;20033;-69
2022/05/18 09:54:23;;;;;;;10.23;3.70;;;27.40;90.30;;;;;;5006953;28;20616;-69
2022/05/18 09:57:08;;;;;;;5.47;3.20;;;27.40;90.50;;;;;;5000599;28;20037;-69
2022/05/18 09:59:38;;;;;;;9.10;4.20;;;27.60;89.80;;;;;;5014060;28;20034;-69
2022/05/18 10:07:49;;;;;;;;;;;28.30;89.10;;;;;;5002231;28;20045;-70
2022/05/18 10:10:20;;;;;;;5.68;3.40;;;28.00;88.80;;;;;;4989458;28;20386;-68
2022/05/18 10:12:47;;;;;;;8.05;2.63;;;27.80;89.10;;;;;;5000450;28;20038;-67
2022/05/18 10:15:25;;;;;;;7.10;3.40;;;27.30;89.70;;;;;;5002445;28;20049;-67
2022/05/18 10:17:57;;;;;;;4.70;2.90;;;27.40;89.70;;;;;;5005870;28;20030;-67
2022/05/18 10:20:30;;;;;;;6.63;3.03;;;27.30;89.80;;;;;;5000067;28;20127;-67
2022/05/18 10:22:58;;;;;;;6.88;3.25;;;26.50;89.80;;;;;;5003846;28;20037;-67
2022/05/18 10:25:40;;;;;;;5.90;2.47;;;26.50;90.40;;;;;;5000562;28;20085;-67
2022/05/18 10:28:19;;;;;;;6.95;3.08;;;27.10;90.70;;;;;;5006826;28;20041;-67
2022/05/18 10:31:07;;;;;;;5.10;2.67;;;27.50;89.20;;;;;;4991064;28;20045;-67
2022/05/18 10:33:35;;;;;;;5.28;2.83;;;27.70;87.90;;;;;;4987745;28;20045;-67
2022/05/18 10:36:28;;;;;;;5.72;2.50;;;27.50;88.40;;;;;;4989310;28;20505;-67
2022/05/18 10:39:00;;;;;;;12.25;2.97;;;27.10;88.70;;;;;;4986336;28;20037;-69
2022/05/18 10:41:39;;;;;;;3.60;2.38;;;27.20;88.90;;;;;;5008202;28;20037;-69
2022/05/18 10:44:20;;;;;;;7.40;2.60;;;27.70;89.30;;;;;;4992872;28;20026;-68
2022/05/18 10:46:51;;;;;;;5.80;2.78;;;27.80;87.70;;;;;;4999369;28;20029;-68
2022/05/18 10:49:36;;;;;;;5.60;3.42;;;27.70;89.10;;;;;;4993254;28;20061;-68
2022/05/18 10:52:29;;;;;;;5.57;2.63;;;27.70;89.60;;;;;;4999905;28;20045;-69
2022/05/18 10:55:03;;;;;;;5.82;3.03;;;27.90;88.80;;;;;;4994392;28;20049;-69
2022/05/18 10:57:36;;;;;;;4.35;2.78;;;27.80;89.10;;;;;;5008813;28;20048;-69
2022/05/18 11:00:13;;;;;;;5.50;2.78;;;28.00;89.60;;;;;;4996370;28;20061;-70
2022/05/18 11:02:59;;;;;;;5.05;2.78;;;28.30;88.70;;;;;;5013646;28;20546;-69
2022/05/18 11:05:31;;;;;;;8.88;2.80;;;28.00;88.70;;;;;;4996588;28;20536;-69
2022/05/18 11:07:56;;;;;;;4.93;3.40;;;28.00;88.00;;;;;;5002703;28;20064;-69
2022/05/18 11:10:25;;;;;;;4.25;2.40;;;27.90;87.90;;;;;;4992805;28;20557;-70
2022/05/18 11:13:19;;;;;;;7.32;2.97;;;27.40;88.50;;;;;;4990708;28;20040;-70
2022/05/18 11:16:09;;;;;;;7.00;2.88;;;27.50;88.30;;;;;;4981272;28;20504;-70
2022/05/18 11:18:55;;;;;;;6.13;2.97;;;27.80;89.20;;;;;;4995025;28;20557;-69
2022/05/18 11:21:36;;;;;;;7.22;3.97;;;28.40;87.60;;;;;;5000008;28;20029;-71
2022/05/18 11:24:14;;;;;;;8.02;3.75;;;28.70;88.40;;;;;;4997790;28;20037;-71
2022/05/18 11:26:48;;;;;;;6.50;3.30;;;28.80;87.40;;;;;;4997729;28;20140;-72
2022/05/18 11:29:36;;;;;;;8.10;3.47;;;28.70;87.00;;;;;;4993295;28;20037;-72
2022/05/18 11:32:42;;;;;;;9.77;3.33;;;28.90;88.00;;;;;;5000472;28;20022;-71
2022/05/18 11:35:20;;;;;;;5.80;3.55;;;29.40;86.60;;;;;;4990876;28;20141;-72
2022/05/18 11:37:49;;;;;;;9.48;3.78;;;29.30;85.50;;;;;;4992948;28;20034;-71
2022/05/18 11:40:24;;;;;;;7.20;4.10;;;28.90;86.70;;;;;;4994553;28;20069;-71
2022/05/18 11:43:30;;;;;;;7.75;4.13;;;29.00;86.60;;;;;;4998440;28;20103;-71
2022/05/18 11:46:15;;;;;;;10.20;3.83;;;28.90;87.50;;;;;;4991176;28;20026;-71
2022/05/18 11:48:51;;;;;;;6.95;3.40;;;28.90;87.20;;;;;;4996325;28;20038;-72
2022/05/18 11:51:55;;;;;;;5.80;3.17;;;29.20;86.80;;;;;;5004515;28;20148;-72
2022/05/18 11:54:23;;;;;;;8.20;3.75;;;29.30;85.90;;;;;;4960487;28;20034;-72
2022/05/18 11:57:03;;;;;;;6.97;4.05;;;29.30;86.40;;;;;;4997760;28;20050;-72
2022/05/18 12:00:03;;;;;;;30.58;4.57;;;29.10;87.20;;;;;;5004082;28;20025;-72
2022/05/18 12:02:46;;;;;;;14.90;3.83;;;29.00;86.30;;;;;;5000214;28;20037;-71
2022/05/18 12:05:50;;;;;;;6.60;4.28;;;28.90;87.50;;;;;;4998605;28;21520;-71
2022/05/18 12:08:37;;;;;;;11.60;4.27;;;28.90;88.50;;;;;;4996481;28;20665;-72
2022/05/18 12:11:30;;;;;;;7.07;3.58;;;29.20;87.50;;;;;;5003088;28;20033;-71
2022/05/18 12:15:01;;;;;;;7.47;3.95;;;29.20;89.00;;;;;;5010149;28;20088;-71
2022/05/18 12:17:43;;;;;;;10.98;4.78;;;28.90;90.00;;;;;;4985114;28;20034;-71
2022/05/18 12:20:32;;;;;;;9.30;3.60;;;28.40;86.90;;;;;;4984272;28;20034;-71
2022/05/18 12:23:06;;;;;;;7.80;3.60;;;28.30;88.60;;;;;;4994882;28;20081;-71
2022/05/18 12:25:34;;;;;;;7.72;3.83;;;28.40;90.70;;;;;;4994762;28;20354;-71
2022/05/18 12:28:03;;;;;;;8.02;3.88;;;28.60;90.40;;;;;;4990617;28;20033;-71
2022/05/18 12:30:33;;;;;;;10.45;5.15;;;28.40;90.20;;;;;;4999191;28;20037;-72
2022/05/18 12:33:00;;;;;;;7.38;3.80;;;28.60;90.30;;;;;;5006492;28;20658;-70
2022/05/18 12:35:49;;;;;;;8.48;3.90;;;28.50;90.10;;;;;;4985100;28;20664;-71
2022/05/18 12:38:21;;;;;;;10.23;4.55;;;28.20;88.80;;;;;;4990813;28;20030;-72
2022/05/18 12:40:55;;;;;;;7.25;3.72;;;28.30;89.10;;;;;;4997466;28;20087;-71
2022/05/18 12:43:25;;;;;;;6.47;3.80;;;28.40;87.60;;;;;;5003146;28;20588;-71
2022/05/18 12:45:58;;;;;;;6.65;3.63;;;28.60;88.30;;;;;;4996971;28;20060;-71
2022/05/18 12:48:29;;;;;;;8.68;3.30;;;28.80;88.20;;;;;;4988127;28;20034;-71
2022/05/18 12:51:02;;;;;;;7.53;3.65;;;28.70;89.30;;;;;;4978262;28;20604;-71
2022/05/18 12:53:45;;;;;;;7.78;3.75;;;28.30;86.50;;;;;;4993285;28;20046;-72
2022/05/18 12:56:19;;;;;;;9.38;4.38;;;28.10;86.90;;;;;;5007465;28;20109;-72
2022/05/18 12:58:54;;;;;;;6.88;3.67;;;28.10;87.40;;;;;;5000057;28;20172;-71
2022/05/18 13:01:22;;;;;;;6.15;3.45;;;28.20;87.20;;;;;;4997833;28;20744;-71
2022/05/18 13:04:16;;;;;;;10.02;3.78;;;28.20;87.90;;;;;;4996932;28;20152;-71
2022/05/18 13:06:49;;;;;;;8.05;3.40;;;28.40;87.50;;;;;;4979512;28;21050;-71
2022/05/18 13:09:26;;;;;;;9.00;3.78;;;28.30;87.50;;;;;;4998292;28;20391;-71
2022/05/18 13:12:26;;;;;;;6.75;3.72;;;28.50;87.30;;;;;;4989335;28;20109;-71
2022/05/18 13:15:11;;;;;;;5.72;2.95;;;28.70;88.10;;;;;;5006394;28;20125;-74
2022/05/18 13:17:46;;;;;;;6.75;3.30;;;28.80;87.40;;;;;;5003213;28;20537;-74
2022/05/18 13:20:29;;;;;;;8.85;3.40;;;28.70;87.20;;;;;;5004139;28;20030;-74
2022/05/18 13:23:03;;;;;;;8.00;3.33;;;28.50;87.10;;;;;;5001394;28;20040;-74
2022/05/18 13:25:33;;;;;;;;;;;28.40;86.50;;;;;;4990910;28;20029;-74
2022/05/18 13:28:00;;;;;;;5.97;3.17;;;28.60;87.70;;;;;;4992822;28;19952;-71